sensor_id;sensor_type;location;lat;lon;timestamp;pressure;altitude;pressure_sealevel;temperature;humidity
41250;BME280;26984;59.928;30.306;2023-07-09T00:02:12;101169.25;;;16.00;100.00
41250;BME280;26984;59.928;30.306;2023-07-09T00:04:40;101164.41;;;16.02;100.00
41250;BME280;26984;59.928;30.306;2023-07-09T00:07:12;101166.88;;;16.03;100.00
41250;BME280;26984;59.928;30.306;2023-07-09T00:09:42;101166.88;;;16.03;100.00
41250;BME280;26984;59.928;30.306;2023-07-09T00:12:11;101163.59;;;16.01;100.00
41250;BME280;26984;59.928;30.306;2023-07-09T00:14:39;101173.84;;;15.99;100.00
41250;BME280;26984;59.928;30.306;2023-07-09T00:17:08;101169.38;;;16.05;100.00
41250;BME280;26984;59.928;30.306;2023-07-09T00:19:37;101171.75;;;16.01;100.00
41250;BME280;26984;59.928;30.306;2023-07-09T00:22:08;101170.78;;;15.96;100.00
41250;BME280;26984;59.928;30.306;2023-07-09T00:24:42;101166.53;;;16.00;100.00
41250;BME280;26984;59.928;30.306;2023-07-09T00:27:11;101172.22;;;15.98;100.00
41250;BME280;26984;59.928;30.306;2023-07-09T00:29:39;101171.41;;;15.98;100.00
41250;BME280;26984;59.928;30.306;2023-07-09T00:32:10;101173.97;;;16.04;100.00
41250;BME280;26984;59.928;30.306;2023-07-09T00:34:39;101176.06;;;16.14;100.00
41250;BME280;26984;59.928;30.306;2023-07-09T00:37:09;101181.72;;;16.24;100.00
41250;BME280;26984;59.928;30.306;2023-07-09T00:39:37;101171.66;;;16.25;100.00
41250;BME280;26984;59.928;30.306;2023-07-09T00:42:08;101174.50;;;16.30;100.00
41250;BME280;26984;59.928;30.306;2023-07-09T00:44:41;101172.50;;;16.25;100.00
41250;BME280;26984;59.928;30.306;2023-07-09T00:47:15;101181.97;;;16.23;100.00
41250;BME280;26984;59.928;30.306;2023-07-09T00:49:45;101178.91;;;16.19;100.00
41250;BME280;26984;59.928;30.306;2023-07-09T00:52:19;101179.13;;;16.18;100.00
41250;BME280;26984;59.928;30.306;2023-07-09T00:54:48;101186.00;;;16.20;100.00
41250;BME280;26984;59.928;30.306;2023-07-09T00:57:19;101175.59;;;16.17;100.00
41250;BME280;26984;59.928;30.306;2023-07-09T00:59:49;101180.22;;;16.17;100.00
41250;BME280;26984;59.928;30.306;2023-07-09T01:02:17;101176.66;;;16.16;100.00
41250;BME280;26984;59.928;30.306;2023-07-09T01:04:49;101181.50;;;16.14;100.00
41250;BME280;26984;59.928;30.306;2023-07-09T01:07:16;101175.16;;;16.09;100.00
41250;BME280;26984;59.928;30.306;2023-07-09T01:09:48;101172.09;;;16.05;100.00
41250;BME280;26984;59.928;30.306;2023-07-09T01:12:17;101172.78;;;16.00;100.00
41250;BME280;26984;59.928;30.306;2023-07-09T01:14:47;101178.22;;;16.00;100.00
41250;BME280;26984;59.928;30.306;2023-07-09T01:17:17;101183.91;;;15.99;100.00
41250;BME280;26984;59.928;30.306;2023-07-09T01:19:48;101179.53;;;15.86;100.00
41250;BME280;26984;59.928;30.306;2023-07-09T01:22:19;101184.28;;;15.91;100.00
41250;BME280;26984;59.928;30.306;2023-07-09T01:24:51;101190.28;;;15.93;100.00
41250;BME280;26984;59.928;30.306;2023-07-09T01:27:20;101193.81;;;15.93;100.00
41250;BME280;26984;59.928;30.306;2023-07-09T01:29:48;101186.66;;;15.87;100.00
41250;BME280;26984;59.928;30.306;2023-07-09T01:32:16;101189.94;;;15.89;100.00
41250;BME280;26984;59.928;30.306;2023-07-09T01:34:45;101192.19;;;15.92;100.00
41250;BME280;26984;59.928;30.306;2023-07-09T01:37:14;101186.19;;;15.90;100.00
41250;BME280;26984;59.928;30.306;2023-07-09T01:39:43;101183.31;;;15.97;100.00
41250;BME280;26984;59.928;30.306;2023-07-09T01:42:11;101185.56;;;16.00;100.00
41250;BME280;26984;59.928;30.306;2023-07-09T01:44:39;101183.31;;;15.97;100.00
41250;BME280;26984;59.928;30.306;2023-07-09T01:47:07;101186.97;;;16.02;100.00
41250;BME280;26984;59.928;30.306;2023-07-09T01:49:34;101187.91;;;16.08;100.00
41250;BME280;26984;59.928;30.306;2023-07-09T01:52:02;101193.81;;;16.05;100.00
41250;BME280;26984;59.928;30.306;2023-07-09T01:54:30;101198.91;;;16.01;100.00
41250;BME280;26984;59.928;30.306;2023-07-09T01:57:14;101200.09;;;16.06;100.00
41250;BME280;26984;59.928;30.306;2023-07-09T01:59:42;101203.16;;;16.09;100.00
41250;BME280;26984;59.928;30.306;2023-07-09T02:02:10;101200.66;;;16.19;100.00
41250;BME280;26984;59.928;30.306;2023-07-09T02:04:45;101205.50;;;16.17;100.00
41250;BME280;26984;59.928;30.306;2023-07-09T02:07:13;101204.94;;;16.15;100.00
41250;BME280;26984;59.928;30.306;2023-07-09T02:09:41;101205.28;;;16.07;100.00
41250;BME280;26984;59.928;30.306;2023-07-09T02:12:09;101203.75;;;15.99;100.00
41250;BME280;26984;59.928;30.306;2023-07-09T02:14:38;101206.72;;;15.98;100.00
41250;BME280;26984;59.928;30.306;2023-07-09T02:17:06;101208.63;;;15.97;100.00
41250;BME280;26984;59.928;30.306;2023-07-09T02:19:33;101210.84;;;16.00;100.00
41250;BME280;26984;59.928;30.306;2023-07-09T02:22:01;101217.47;;;15.93;100.00
41250;BME280;26984;59.928;30.306;2023-07-09T02:24:28;101214.38;;;15.89;100.00
41250;BME280;26984;59.928;30.306;2023-07-09T02:26:56;101213.47;;;15.84;100.00
41250;BME280;26984;59.928;30.306;2023-07-09T02:29:25;101225.72;;;15.86;100.00
41250;BME280;26984;59.928;30.306;2023-07-09T02:31:54;101226.34;;;15.88;100.00
41250;BME280;26984;59.928;30.306;2023-07-09T02:34:23;101227.28;;;15.82;100.00
41250;BME280;26984;59.928;30.306;2023-07-09T02:36:52;101224.69;;;15.87;100.00
41250;BME280;26984;59.928;30.306;2023-07-09T02:39:20;101223.97;;;15.80;100.00
41250;BME280;26984;59.928;30.306;2023-07-09T02:41:48;101224.91;;;15.74;100.00
41250;BME280;26984;59.928;30.306;2023-07-09T02:44:17;101227.16;;;15.77;100.00
41250;BME280;26984;59.928;30.306;2023-07-09T02:46:44;101227.75;;;15.79;100.00
41250;BME280;26984;59.928;30.306;2023-07-09T02:49:13;101226.34;;;15.76;100.00
41250;BME280;26984;59.928;30.306;2023-07-09T02:51:41;101224.91;;;15.74;100.00
41250;BME280;26984;59.928;30.306;2023-07-09T02:54:09;101232.25;;;15.73;100.00
41250;BME280;26984;59.928;30.306;2023-07-09T02:56:36;101232.09;;;15.68;100.00
41250;BME280;26984;59.928;30.306;2023-07-09T02:59:04;101224.56;;;15.70;100.00
41250;BME280;26984;59.928;30.306;2023-07-09T03:01:32;101235.91;;;15.67;100.00
41250;BME280;26984;59.928;30.306;2023-07-09T03:04:00;101235.16;;;15.60;100.00
41250;BME280;26984;59.928;30.306;2023-07-09T03:09:00;101246.00;;;15.60;100.00
41250;BME280;26984;59.928;30.306;2023-07-09T03:11:28;101248.66;;;15.67;100.00
41250;BME280;26984;59.928;30.306;2023-07-09T03:13:57;101247.72;;;15.73;100.00
41250;BME280;26984;59.928;30.306;2023-07-09T03:16:26;101252.19;;;15.79;100.00
41250;BME280;26984;59.928;30.306;2023-07-09T03:18:54;101257.19;;;15.94;100.00
41250;BME280;26984;59.928;30.306;2023-07-09T03:21:21;101257.03;;;16.00;100.00
41250;BME280;26984;59.928;30.306;2023-07-09T03:23:49;101253.69;;;16.22;100.00
41250;BME280;26984;59.928;30.306;2023-07-09T03:26:18;101257.81;;;16.36;100.00
41250;BME280;26984;59.928;30.306;2023-07-09T03:28:46;101256.25;;;16.52;100.00
41250;BME280;26984;59.928;30.306;2023-07-09T03:31:13;101264.16;;;16.53;100.00
41250;BME280;26984;59.928;30.306;2023-07-09T03:33:41;101264.53;;;16.45;100.00
41250;BME280;26984;59.928;30.306;2023-07-09T03:36:08;101273.91;;;16.38;100.00
41250;BME280;26984;59.928;30.306;2023-07-09T03:38:36;101273.94;;;16.26;100.00
41250;BME280;26984;59.928;30.306;2023-07-09T03:41:03;101272.97;;;16.20;100.00
41250;BME280;26984;59.928;30.306;2023-07-09T03:43:32;101284.69;;;16.09;100.00
41250;BME280;26984;59.928;30.306;2023-07-09T03:45:59;101276.41;;;16.04;100.00
41250;BME280;26984;59.928;30.306;2023-07-09T03:48:27;101274.28;;;16.06;100.00
41250;BME280;26984;59.928;30.306;2023-07-09T03:50:54;101275.69;;;15.97;100.00
41250;BME280;26984;59.928;30.306;2023-07-09T03:53:22;101278.66;;;15.95;100.00
41250;BME280;26984;59.928;30.306;2023-07-09T03:55:51;101273.13;;;16.02;100.00
41250;BME280;26984;59.928;30.306;2023-07-09T03:58:19;101281.25;;;16.14;100.00
41250;BME280;26984;59.928;30.306;2023-07-09T04:00:48;101272.50;;;16.23;100.00
41250;BME280;26984;59.928;30.306;2023-07-09T04:03:15;101282.06;;;16.38;100.00
41250;BME280;26984;59.928;30.306;2023-07-09T04:05:43;101280.75;;;16.40;100.00
41250;BME280;26984;59.928;30.306;2023-07-09T04:08:10;101278.50;;;16.49;100.00
41250;BME280;26984;59.928;30.306;2023-07-09T04:10:38;101278.59;;;16.54;100.00
41250;BME280;26984;59.928;30.306;2023-07-09T04:13:05;101282.28;;;16.48;100.00
41250;BME280;26984;59.928;30.306;2023-07-09T04:15:33;101284.31;;;16.41;100.00
41250;BME280;26984;59.928;30.306;2023-07-09T04:18:02;101289.03;;;16.45;100.00
41250;BME280;26984;59.928;30.306;2023-07-09T04:20:29;101288.41;;;16.43;100.00
41250;BME280;26984;59.928;30.306;2023-07-09T04:22:57;101291.00;;;16.50;100.00
41250;BME280;26984;59.928;30.306;2023-07-09T04:25:24;101288.53;;;16.48;100.00
41250;BME280;26984;59.928;30.306;2023-07-09T04:27:52;101287.72;;;16.48;100.00
41250;BME280;26984;59.928;30.306;2023-07-09T04:30:19;101298.81;;;16.46;100.00
41250;BME280;26984;59.928;30.306;2023-07-09T04:32:47;101300.03;;;16.39;100.00
41250;BME280;26984;59.928;30.306;2023-07-09T04:35:16;101294.84;;;16.37;100.00
41250;BME280;26984;59.928;30.306;2023-07-09T04:37:43;101296.22;;;16.40;100.00
41250;BME280;26984;59.928;30.306;2023-07-09T04:40:11;101292.22;;;16.42;100.00
41250;BME280;26984;59.928;30.306;2023-07-09T04:42:39;101291.25;;;16.48;100.00
41250;BME280;26984;59.928;30.306;2023-07-09T04:45:07;101302.13;;;16.60;100.00
41250;BME280;26984;59.928;30.306;2023-07-09T04:47:35;101290.03;;;16.68;100.00
41250;BME280;26984;59.928;30.306;2023-07-09T04:50:03;101296.78;;;16.77;100.00
41250;BME280;26984;59.928;30.306;2023-07-09T04:52:33;101302.44;;;16.87;100.00
41250;BME280;26984;59.928;30.306;2023-07-09T04:55:00;101302.53;;;16.92;100.00
41250;BME280;26984;59.928;30.306;2023-07-09T04:57:28;101307.97;;;16.92;100.00
41250;BME280;26984;59.928;30.306;2023-07-09T04:59:56;101308.56;;;16.94;100.00
41250;BME280;26984;59.928;30.306;2023-07-09T05:02:23;101311.03;;;16.96;100.00
41250;BME280;26984;59.928;30.306;2023-07-09T05:04:51;101322.50;;;16.98;100.00
41250;BME280;26984;59.928;30.306;2023-07-09T05:07:19;101319.16;;;17.08;100.00
41250;BME280;26984;59.928;30.306;2023-07-09T05:09:48;101326.13;;;17.15;100.00
41250;BME280;26984;59.928;30.306;2023-07-09T05:12:15;101321.03;;;17.07;100.00
41250;BME280;26984;59.928;30.306;2023-07-09T05:14:43;101321.28;;;17.06;100.00
41250;BME280;26984;59.928;30.306;2023-07-09T05:17:10;101324.38;;;17.09;100.00
41250;BME280;26984;59.928;30.306;2023-07-09T05:19:38;101319.34;;;17.18;100.00
41250;BME280;26984;59.928;30.306;2023-07-09T05:22:06;101333.16;;;17.28;100.00
41250;BME280;26984;59.928;30.306;2023-07-09T05:24:33;101333.97;;;17.29;100.00
41250;BME280;26984;59.928;30.306;2023-07-09T05:27:02;101332.59;;;17.26;100.00
41250;BME280;26984;59.928;30.306;2023-07-09T05:29:30;101338.38;;;17.30;100.00
41250;BME280;26984;59.928;30.306;2023-07-09T05:31:58;101333.44;;;17.43;100.00
41250;BME280;26984;59.928;30.306;2023-07-09T05:34:25;101326.63;;;17.58;100.00
41250;BME280;26984;59.928;30.306;2023-07-09T05:36:52;101338.19;;;17.65;100.00
41250;BME280;26984;59.928;30.306;2023-07-09T05:39:20;101333.78;;;17.64;100.00
41250;BME280;26984;59.928;30.306;2023-07-09T05:41:48;101337.00;;;17.61;100.00
41250;BME280;26984;59.928;30.306;2023-07-09T05:44:18;101341.63;;;17.60;100.00
41250;BME280;26984;59.928;30.306;2023-07-09T05:46:45;101330.84;;;17.65;100.00
41250;BME280;26984;59.928;30.306;2023-07-09T05:49:14;101332.47;;;17.66;100.00
41250;BME280;26984;59.928;30.306;2023-07-09T05:51:42;101342.88;;;17.69;100.00
41250;BME280;26984;59.928;30.306;2023-07-09T05:54:10;101341.78;;;17.82;100.00
41250;BME280;26984;59.928;30.306;2023-07-09T05:56:37;101344.84;;;17.86;100.00
41250;BME280;26984;59.928;30.306;2023-07-09T05:59:05;101345.91;;;17.85;100.00
41250;BME280;26984;59.928;30.306;2023-07-09T06:01:34;101344.75;;;17.81;100.00
41250;BME280;26984;59.928;30.306;2023-07-09T06:04:01;101341.78;;;17.82;100.00
41250;BME280;26984;59.928;30.306;2023-07-09T06:06:29;101344.19;;;17.79;100.00
41250;BME280;26984;59.928;30.306;2023-07-09T06:08:57;101344.00;;;17.85;100.00
41250;BME280;26984;59.928;30.306;2023-07-09T06:11:24;101344.75;;;17.98;100.00
41250;BME280;26984;59.928;30.306;2023-07-09T06:13:52;101348.03;;;18.16;100.00
41250;BME280;26984;59.928;30.306;2023-07-09T06:16:19;101357.94;;;18.39;100.00
41250;BME280;26984;59.928;30.306;2023-07-09T06:18:48;101353.78;;;18.54;100.00
41250;BME280;26984;59.928;30.306;2023-07-09T06:21:16;101360.59;;;18.56;100.00
41250;BME280;26984;59.928;30.306;2023-07-09T06:23:44;101366.50;;;18.48;100.00
41250;BME280;26984;59.928;30.306;2023-07-09T06:26:12;101352.97;;;18.36;100.00
41250;BME280;26984;59.928;30.306;2023-07-09T06:28:39;101358.09;;;18.33;100.00
41250;BME280;26984;59.928;30.306;2023-07-09T06:31:07;101358.59;;;18.30;100.00
41250;BME280;26984;59.928;30.306;2023-07-09T06:33:34;101364.81;;;18.25;100.00
41250;BME280;26984;59.928;30.306;2023-07-09T06:36:03;101366.03;;;18.17;100.00
41250;BME280;26984;59.928;30.306;2023-07-09T06:38:31;101361.00;;;18.09;100.00
41250;BME280;26984;59.928;30.306;2023-07-09T06:40:59;101371.34;;;17.90;100.00
41250;BME280;26984;59.928;30.306;2023-07-09T06:43:27;101375.66;;;17.75;100.00
41250;BME280;26984;59.928;30.306;2023-07-09T06:45:56;101380.69;;;17.66;100.00
41250;BME280;26984;59.928;30.306;2023-07-09T06:48:24;101380.03;;;17.59;100.00
41250;BME280;26984;59.928;30.306;2023-07-09T06:50:53;101385.44;;;17.42;100.00
41250;BME280;26984;59.928;30.306;2023-07-09T06:53:23;101390.31;;;17.40;100.00
41250;BME280;26984;59.928;30.306;2023-07-09T06:55:50;101388.44;;;17.29;100.00
41250;BME280;26984;59.928;30.306;2023-07-09T06:58:20;101392.16;;;17.22;100.00
41250;BME280;26984;59.928;30.306;2023-07-09T07:00:48;101389.22;;;17.12;100.00
41250;BME280;26984;59.928;30.306;2023-07-09T07:03:16;101393.63;;;17.02;100.00
41250;BME280;26984;59.928;30.306;2023-07-09T07:05:43;101399.81;;;16.97;100.00
41250;BME280;26984;59.928;30.306;2023-07-09T07:08:12;101397.31;;;16.95;100.00
41250;BME280;26984;59.928;30.306;2023-07-09T07:10:42;101402.31;;;16.87;100.00
41250;BME280;26984;59.928;30.306;2023-07-09T07:13:11;101411.88;;;16.78;100.00
41250;BME280;26984;59.928;30.306;2023-07-09T07:15:39;101415.53;;;16.71;100.00
41250;BME280;26984;59.928;30.306;2023-07-09T07:18:07;101411.06;;;16.65;100.00
41250;BME280;26984;59.928;30.306;2023-07-09T07:20:34;101413.53;;;16.55;100.00
41250;BME280;26984;59.928;30.306;2023-07-09T07:23:01;101415.19;;;16.44;100.00
41250;BME280;26984;59.928;30.306;2023-07-09T07:25:29;101427.38;;;16.42;100.00
41250;BME280;26984;59.928;30.306;2023-07-09T07:27:59;101423.56;;;16.31;100.00
41250;BME280;26984;59.928;30.306;2023-07-09T07:30:26;101426.50;;;16.18;100.00
41250;BME280;26984;59.928;30.306;2023-07-09T07:32:54;101427.22;;;16.13;100.00
41250;BME280;26984;59.928;30.306;2023-07-09T07:35:21;101426.41;;;16.24;100.00
41250;BME280;26984;59.928;30.306;2023-07-09T07:37:49;101434.69;;;16.30;100.00
41250;BME280;26984;59.928;30.306;2023-07-09T07:40:16;101433.63;;;16.31;100.00
41250;BME280;26984;59.928;30.306;2023-07-09T07:42:44;101428.09;;;16.37;100.00
41250;BME280;26984;59.928;30.306;2023-07-09T07:45:13;101444.03;;;16.45;100.00
41250;BME280;26984;59.928;30.306;2023-07-09T07:47:41;101443.56;;;16.48;100.00
41250;BME280;26984;59.928;30.306;2023-07-09T07:50:08;101439.78;;;16.38;100.00
41250;BME280;26984;59.928;30.306;2023-07-09T07:52:36;101450.75;;;16.31;100.00
41250;BME280;26984;59.928;30.306;2023-07-09T07:55:04;101449.94;;;16.31;100.00
41250;BME280;26984;59.928;30.306;2023-07-09T07:57:31;101458.09;;;16.31;100.00
41250;BME280;26984;59.928;30.306;2023-07-09T07:59:59;101460.56;;;16.20;100.00
41250;BME280;26984;59.928;30.306;2023-07-09T08:02:27;101476.16;;;16.13;100.00
41250;BME280;26984;59.928;30.306;2023-07-09T08:04:55;101457.69;;;16.03;100.00
41250;BME280;26984;59.928;30.306;2023-07-09T08:07:22;101472.34;;;16.02;100.00
41250;BME280;26984;59.928;30.306;2023-07-09T08:09:50;101468.44;;;16.10;100.00
41250;BME280;26984;59.928;30.306;2023-07-09T08:12:17;101471.53;;;16.25;100.00
41250;BME280;26984;59.928;30.306;2023-07-09T08:14:45;101470.88;;;16.30;100.00
41250;BME280;26984;59.928;30.306;2023-07-09T08:17:13;101473.69;;;16.35;100.00
41250;BME280;26984;59.928;30.306;2023-07-09T08:19:45;101474.88;;;16.27;100.00
41250;BME280;26984;59.928;30.306;2023-07-09T08:22:13;101478.97;;;16.18;100.00
41250;BME280;26984;59.928;30.306;2023-07-09T08:24:42;101490.91;;;16.06;100.00
41250;BME280;26984;59.928;30.306;2023-07-09T08:27:09;101484.38;;;15.95;100.00
41250;BME280;26984;59.928;30.306;2023-07-09T08:29:37;101482.91;;;15.80;100.00
41250;BME280;26984;59.928;30.306;2023-07-09T08:32:05;101479.13;;;15.82;100.00
41250;BME280;26984;59.928;30.306;2023-07-09T08:34:33;101484.41;;;15.76;100.00
41250;BME280;26984;59.928;30.306;2023-07-09T08:37:02;101480.19;;;15.80;100.00
41250;BME280;26984;59.928;30.306;2023-07-09T08:39:29;101486.56;;;15.86;100.00
41250;BME280;26984;59.928;30.306;2023-07-09T08:41:57;101485.16;;;15.84;100.00
41250;BME280;26984;59.928;30.306;2023-07-09T08:44:40;101485.53;;;15.87;100.00
41250;BME280;26984;59.928;30.306;2023-07-09T08:47:12;101493.25;;;16.02;100.00
41250;BME280;26984;59.928;30.306;2023-07-09T08:49:43;101489.75;;;16.25;100.00
41250;BME280;26984;59.928;30.306;2023-07-09T08:52:15;101491.53;;;16.31;100.00
41250;BME280;26984;59.928;30.306;2023-07-09T08:54:44;101503.41;;;16.37;100.00
41250;BME280;26984;59.928;30.306;2023-07-09T08:57:17;101503.75;;;16.40;100.00
41250;BME280;26984;59.928;30.306;2023-07-09T08:59:45;101499.72;;;16.43;100.00
41250;BME280;26984;59.928;30.306;2023-07-09T09:02:14;101511.56;;;16.48;100.00
41250;BME280;26984;59.928;30.306;2023-07-09T09:04:43;101506.69;;;16.50;100.00
41250;BME280;26984;59.928;30.306;2023-07-09T09:07:14;101508.63;;;16.62;100.00
41250;BME280;26984;59.928;30.306;2023-07-09T09:09:47;101509.50;;;16.74;100.00
41250;BME280;26984;59.928;30.306;2023-07-09T09:12:18;101507.44;;;16.69;100.00
41250;BME280;26984;59.928;30.306;2023-07-09T09:14:49;101517.94;;;16.54;100.00
41250;BME280;26984;59.928;30.306;2023-07-09T09:17:20;101516.41;;;16.46;100.00
41250;BME280;26984;59.928;30.306;2023-07-09T09:19:48;101524.19;;;16.31;100.00
41250;BME280;26984;59.928;30.306;2023-07-09T09:22:21;101518.84;;;16.24;100.00
41250;BME280;26984;59.928;30.306;2023-07-09T09:24:55;101515.03;;;16.25;100.00
41250;BME280;26984;59.928;30.306;2023-07-09T09:27:23;101518.75;;;16.31;100.00
41250;BME280;26984;59.928;30.306;2023-07-09T09:29:51;101524.06;;;16.38;100.00
41250;BME280;26984;59.928;30.306;2023-07-09T09:32:20;101520.06;;;16.40;100.00
41250;BME280;26984;59.928;30.306;2023-07-09T09:34:49;101529.97;;;16.35;100.00
41250;BME280;26984;59.928;30.306;2023-07-09T09:37:22;101532.78;;;16.28;100.00
41250;BME280;26984;59.928;30.306;2023-07-09T09:39:54;101533.34;;;16.18;100.00
41250;BME280;26984;59.928;30.306;2023-07-09T09:42:24;101534.56;;;16.22;100.00
41250;BME280;26984;59.928;30.306;2023-07-09T09:44:53;101538.03;;;16.30;100.00
41250;BME280;26984;59.928;30.306;2023-07-09T09:47:22;101542.28;;;16.37;100.00
41250;BME280;26984;59.928;30.306;2023-07-09T09:49:53;101534.16;;;16.49;100.00
41250;BME280;26984;59.928;30.306;2023-07-09T09:52:24;101538.50;;;16.50;100.00
41250;BME280;26984;59.928;30.306;2023-07-09T09:55:03;101538.06;;;16.53;100.00
41250;BME280;26984;59.928;30.306;2023-07-09T09:57:36;101550.91;;;16.34;100.00
41250;BME280;26984;59.928;30.306;2023-07-09T10:00:05;101550.31;;;16.32;100.00
41250;BME280;26984;59.928;30.306;2023-07-09T10:02:38;101559.78;;;16.30;100.00
41250;BME280;26984;59.928;30.306;2023-07-09T10:05:10;101558.34;;;16.27;100.00
41250;BME280;26984;59.928;30.306;2023-07-09T10:07:39;101560.50;;;16.37;100.00
41250;BME280;26984;59.928;30.306;2023-07-09T10:10:12;101558.59;;;16.37;100.00
41250;BME280;26984;59.928;30.306;2023-07-09T10:12:44;101564.19;;;16.54;100.00
41250;BME280;26984;59.928;30.306;2023-07-09T10:15:24;101569.97;;;16.58;100.00
41250;BME280;26984;59.928;30.306;2023-07-09T10:17:57;101569.88;;;16.64;100.00
41250;BME280;26984;59.928;30.306;2023-07-09T10:20:30;101568.16;;;16.82;100.00
41250;BME280;26984;59.928;30.306;2023-07-09T10:23:00;101575.75;;;16.91;100.00
41250;BME280;26984;59.928;30.306;2023-07-09T10:25:33;101563.94;;;16.97;100.00
41250;BME280;26984;59.928;30.306;2023-07-09T10:28:16;101570.78;;;16.88;100.00
41250;BME280;26984;59.928;30.306;2023-07-09T10:30:47;101580.03;;;16.87;100.00
41250;BME280;26984;59.928;30.306;2023-07-09T10:33:20;101590.56;;;16.84;100.00
41250;BME280;26984;59.928;30.306;2023-07-09T10:35:54;101588.41;;;16.74;100.00
41250;BME280;26984;59.928;30.306;2023-07-09T10:38:29;101582.91;;;16.62;100.00
41250;BME280;26984;59.928;30.306;2023-07-09T10:41:02;101591.09;;;16.32;100.00
41250;BME280;26984;59.928;30.306;2023-07-09T10:43:33;101599.94;;;15.97;100.00
41250;BME280;26984;59.928;30.306;2023-07-09T10:46:04;101606.66;;;15.95;100.00
41250;BME280;26984;59.928;30.306;2023-07-09T10:48:34;101614.84;;;16.07;100.00
41250;BME280;26984;59.928;30.306;2023-07-09T10:51:04;101606.63;;;16.13;100.00
41250;BME280;26984;59.928;30.306;2023-07-09T10:53:38;101604.41;;;16.22;100.00
41250;BME280;26984;59.928;30.306;2023-07-09T10:56:10;101605.50;;;16.33;100.00
41250;BME280;26984;59.928;30.306;2023-07-09T10:58:39;101607.41;;;16.32;100.00
41250;BME280;26984;59.928;30.306;2023-07-09T11:01:10;101613.44;;;16.34;100.00
41250;BME280;26984;59.928;30.306;2023-07-09T11:03:40;101615.63;;;16.44;100.00
41250;BME280;26984;59.928;30.306;2023-07-09T11:06:16;101603.78;;;16.50;100.00
41250;BME280;26984;59.928;30.306;2023-07-09T11:08:45;101603.25;;;16.60;100.00
41250;BME280;26984;59.928;30.306;2023-07-09T11:11:17;101602.69;;;16.69;100.00
41250;BME280;26984;59.928;30.306;2023-07-09T11:13:50;101615.69;;;16.67;100.00
41250;BME280;26984;59.928;30.306;2023-07-09T11:16:25;101601.19;;;16.85;100.00
41250;BME280;26984;59.928;30.306;2023-07-09T11:18:54;101608.56;;;17.08;96.71
41250;BME280;26984;59.928;30.306;2023-07-09T11:21:22;101620.63;;;17.24;94.67
41250;BME280;26984;59.928;30.306;2023-07-09T11:23:51;101604.06;;;17.37;93.22
41250;BME280;26984;59.928;30.306;2023-07-09T11:26:24;101625.97;;;17.31;91.99
41250;BME280;26984;59.928;30.306;2023-07-09T11:28:53;101610.44;;;17.31;92.92
41250;BME280;26984;59.928;30.306;2023-07-09T11:31:22;101615.88;;;17.43;93.06
41250;BME280;26984;59.928;30.306;2023-07-09T11:34:02;101621.34;;;17.55;90.94
41250;BME280;26984;59.928;30.306;2023-07-09T11:36:34;101617.78;;;17.54;89.57
41250;BME280;26984;59.928;30.306;2023-07-09T11:39:22;101606.44;;;17.34;90.88
41250;BME280;26984;59.928;30.306;2023-07-09T11:41:51;101619.56;;;17.25;89.75
41250;BME280;26984;59.928;30.306;2023-07-09T11:44:20;101619.69;;;17.30;89.45
41250;BME280;26984;59.928;30.306;2023-07-09T11:46:50;101629.66;;;17.36;87.33
41250;BME280;26984;59.928;30.306;2023-07-09T11:49:21;101620.03;;;17.10;88.07
41250;BME280;26984;59.928;30.306;2023-07-09T11:51:51;101612.94;;;16.97;88.93
41250;BME280;26984;59.928;30.306;2023-07-09T11:54:19;101607.38;;;17.16;89.15
41250;BME280;26984;59.928;30.306;2023-07-09T11:56:54;101621.47;;;17.13;88.39
41250;BME280;26984;59.928;30.306;2023-07-09T11:59:22;101621.09;;;17.09;87.91
41250;BME280;26984;59.928;30.306;2023-07-09T12:01:50;101629.38;;;17.14;87.66
41250;BME280;26984;59.928;30.306;2023-07-09T12:04:21;101632.72;;;17.16;87.46
41250;BME280;26984;59.928;30.306;2023-07-09T12:06:49;101623.00;;;17.20;86.53
41250;BME280;26984;59.928;30.306;2023-07-09T12:09:20;101624.66;;;17.10;86.10
41250;BME280;26984;59.928;30.306;2023-07-09T12:11:49;101622.53;;;17.12;87.16
41250;BME280;26984;59.928;30.306;2023-07-09T12:14:18;101612.22;;;17.02;85.86
41250;BME280;26984;59.928;30.306;2023-07-09T12:16:47;101622.50;;;17.00;87.01
41250;BME280;26984;59.928;30.306;2023-07-09T12:19:15;101619.31;;;17.03;86.91
41250;BME280;26984;59.928;30.306;2023-07-09T12:21:44;101626.09;;;17.12;85.30
41250;BME280;26984;59.928;30.306;2023-07-09T12:24:17;101629.97;;;17.28;85.73
41250;BME280;26984;59.928;30.306;2023-07-09T12:26:47;101622.19;;;17.43;85.51
41250;BME280;26984;59.928;30.306;2023-07-09T12:29:15;101619.56;;;17.48;83.75
41250;BME280;26984;59.928;30.306;2023-07-09T12:31:45;101625.94;;;17.42;83.72
41250;BME280;26984;59.928;30.306;2023-07-09T12:34:13;101629.50;;;17.31;82.50
41250;BME280;26984;59.928;30.306;2023-07-09T12:36:44;101634.84;;;17.26;81.25
41250;BME280;26984;59.928;30.306;2023-07-09T12:39:13;101639.84;;;17.29;80.95
41250;BME280;26984;59.928;30.306;2023-07-09T12:41:42;101630.00;;;17.40;81.25
41250;BME280;26984;59.928;30.306;2023-07-09T12:44:15;101626.56;;;17.44;80.09